Terminal Aerodrome Forecast
Issued by NWS Quad Cities IA IL

Home | Current Version | Previous Version | Text Only | Print | Product List | Glossary On
Versions: 1 2 3 4 5 6 7 8 9 10 11 12 13 14 15 16 17 18 19 20
000
FTUS43 KDVN 241120
TAFMLI
TAF
KMLI 241120Z 2412/2512 12008KT P6SM -SHRA BKN050
     FM241700 16015KT 5SM BR OVC020 PROB30 2500/2506 3SM -TSRA
      BKN015CB
     FM250600 16011KT 6SM RA BR OVC010=

USA.gov is the U.S. government's official web portal to all federal, state and local government web resources and services.